TimeHST,TemperatureF,Dew PointF,Humidity,Sea Level PressureIn,VisibilityMPH,Wind Direction,Wind SpeedMPH,Gust SpeedMPH,PrecipitationIn,Events,Conditions,WindDirDegrees,DateUTC
12:28 AM,71.6,66.2,83,30.07,10.0,East,15.0,-,N/A,,Mostly Cloudy,90,2013-01-24 10:28:00
12:53 AM,71.1,66.0,84,30.07,10.0,East,12.7,-,N/A,,Overcast,80,2013-01-24 10:53:00
1:45 AM,69.8,66.2,88,30.07,10.0,East,13.8,-,N/A,,Overcast,100,2013-01-24 11:45:00
1:53 AM,70.0,64.9,84,30.06,10.0,East,12.7,-,N/A,,Overcast,90,2013-01-24 11:53:00
2:53 AM,69.1,64.0,84,30.04,10.0,ENE,6.9,-,N/A,,Overcast,60,2013-01-24 12:53:00
3:53 AM,69.1,64.0,84,30.04,10.0,NW,3.5,-,N/A,,Overcast,320,2013-01-24 13:53:00
4:35 AM,66.2,64.4,94,30.04,10.0,West,5.8,-,N/A,,Overcast,280,2013-01-24 14:35:00
4:53 AM,68.0,64.0,87,30.04,10.0,Calm,Calm,-,N/A,,Overcast,0,2013-01-24 14:53:00
5:03 AM,68.0,64.4,88,30.04,10.0,WNW,3.5,-,N/A,,Overcast,290,2013-01-24 15:03:00
5:53 AM,66.9,63.0,87,30.04,10.0,West,8.1,-,N/A,,Mostly Cloudy,280,2013-01-24 15:53:00
6:07 AM,66.2,62.6,88,30.05,10.0,WNW,6.9,-,N/A,,Mostly Cloudy,290,2013-01-24 16:07:00
6:53 AM,66.9,63.0,87,30.06,10.0,WNW,3.5,-,N/A,,Overcast,290,2013-01-24 16:53:00
7:00 AM,66.2,64.4,94,30.06,10.0,WNW,3.5,-,N/A,,Mostly Cloudy,290,2013-01-24 17:00:00
7:11 AM,66.2,64.4,94,30.06,10.0,Calm,Calm,-,N/A,,Overcast,0,2013-01-24 17:11:00
7:53 AM,68.0,64.0,87,30.07,10.0,West,3.5,-,N/A,,Overcast,260,2013-01-24 17:53:00
8:01 AM,69.8,64.4,83,30.08,10.0,SW,3.5,-,N/A,,Overcast,220,2013-01-24 18:01:00
8:13 AM,68.0,64.4,88,30.08,10.0,SW,4.6,-,N/A,,Overcast,230,2013-01-24 18:13:00
8:15 AM,68.0,64.4,88,30.08,10.0,Calm,Calm,-,N/A,,Mostly Cloudy,0,2013-01-24 18:15:00
8:22 AM,69.8,64.4,83,30.08,10.0,Variable,3.5,-,N/A,,Scattered Clouds,0,2013-01-24 18:22:00
8:53 AM,71.1,64.9,81,30.08,10.0,West,5.8,-,N/A,,Scattered Clouds,280,2013-01-24 18:53:00
9:53 AM,73.9,64.0,71,30.09,10.0,NE,8.1,-,N/A,,Overcast,50,2013-01-24 19:53:00
10:53 AM,73.9,64.9,73,30.10,10.0,East,15.0,-,N/A,,Overcast,80,2013-01-24 20:53:00
11:53 AM,75.0,66.9,76,30.08,10.0,ENE,11.5,-,N/A,,Partly Cloudy,70,2013-01-24 21:53:00
12:53 PM,75.9,66.9,74,30.06,10.0,ENE,9.2,-,N/A,,Partly Cloudy,70,2013-01-24 22:53:00
1:07 PM,75.2,68.0,78,30.05,10.0,East,12.7,-,N/A,,Mostly Cloudy,90,2013-01-24 23:07:00
1:29 PM,75.2,66.2,73,30.04,10.0,East,11.5,-,N/A,,Scattered Clouds,90,2013-01-24 23:29:00
1:53 PM,75.9,66.0,71,30.03,10.0,East,10.4,-,N/A,,Scattered Clouds,80,2013-01-24 23:53:00
2:53 PM,75.9,66.9,74,30.02,10.0,East,13.8,-,N/A,,Clear,100,2013-01-25 00:53:00
3:53 PM,75.0,66.0,73,30.02,10.0,ESE,12.7,-,N/A,,Clear,110,2013-01-25 01:53:00
4:53 PM,73.0,64.0,73,30.03,10.0,ESE,10.4,-,N/A,,Mostly Cloudy,110,2013-01-25 02:53:00
5:06 PM,73.4,64.4,73,30.03,10.0,ESE,9.2,-,N/A,,Overcast,110,2013-01-25 03:06:00
5:33 PM,73.4,66.2,78,30.04,10.0,ESE,11.5,-,N/A,,Overcast,110,2013-01-25 03:33:00
5:53 PM,73.0,64.9,76,30.04,10.0,ESE,8.1,-,N/A,,Mostly Cloudy,110,2013-01-25 03:53:00
6:53 PM,72.0,64.0,76,30.05,10.0,ESE,4.6,-,N/A,,Partly Cloudy,120,2013-01-25 04:53:00
7:42 PM,71.6,64.4,78,30.06,10.0,SSE,3.5,-,N/A,,Overcast,150,2013-01-25 05:42:00
7:50 PM,71.6,64.4,78,30.06,10.0,SSE,5.8,-,N/A,,Overcast,160,2013-01-25 05:50:00
7:53 PM,72.0,64.9,78,30.06,10.0,South,5.8,-,N/A,,Overcast,170,2013-01-25 05:53:00
8:53 PM,68.0,64.0,87,30.08,10.0,West,5.8,-,N/A,,Scattered Clouds,280,2013-01-25 06:53:00
9:53 PM,68.0,64.0,87,30.07,10.0,WSW,5.8,-,N/A,,Clear,250,2013-01-25 07:53:00
10:53 PM,66.9,64.0,90,30.07,10.0,West,4.6,-,N/A,,Partly Cloudy,260,2013-01-25 08:53:00
11:53 PM,66.0,63.0,90,30.06,10.0,WSW,4.6,-,N/A,,Clear,240,2013-01-25 09:53:00